CheckWX is a tool to help pilots better visualize weather data.  It is not intended as a substitute for an official pre-flight weather briefing.

14:05:30 UTC

EPGD METAR
Gdańsk Lech Wałęsa Airport
Gdańsk, Poland
Current

36 mins ago

EPGD 201330Z 05007KT 020V090 CAVOK 22/13 Q1016
Observed
Jul-20 @ 13:30 UTC
Wind
  • 050° at 7 KTS
Visibility
10,000+ meters
Flight Rules
VFR
Cloud Levels
  • Clear skies
Temperature
22°C / 72°F
Dewpoint
13°C / 55°F
Humidity
57%
Altimeter
30" Hg
Pressure
1015.92 hPa
Previous

1 hour ago

EPGD 201300Z 05009KT CAVOK 22/13 Q1016
Observed
Jul-20 @ 13:00 UTC
Wind
  • 050° at 9 KTS
Visibility
10,000+ meters
Flight Rules
VFR
Cloud Levels
  • Clear skies
Temperature
22°C / 72°F
Dewpoint
13°C / 55°F
Humidity
57%
Altimeter
30" Hg
Pressure
1015.92 hPa
Previous

2 hours ago

EPGD 201230Z 04008KT 010V090 CAVOK 23/12 Q1016
Observed
Jul-20 @ 12:30 UTC
Wind
  • 040° at 8 KTS
Visibility
10,000+ meters
Flight Rules
VFR
Cloud Levels
  • Clear skies
Temperature
23°C / 73°F
Dewpoint
12°C / 54°F
Humidity
50%
Altimeter
30" Hg
Pressure
1015.92 hPa